Nantucket Memorial Airport Nantucket US
ICAO: KACK
IATA: ACK
Category: Medium
Scheduled Services: Yes

Elevation: 47 ft
TransAlt. 18000 ft.

Airport Communications:
CAPE APP/DEP:126.1
ATIS:127.5
CLNC DEL:119.375
CTAF:118.3
GND:121.7
BRIDGEPORT RDO:116.2
TWR:118.3
UNICOM:122.95

KACK Zoom In..

If you have problems with the map follow the link
https://www.worldairports.se/pages/airport.php?
ICAO=KACK

Runways:

(A) RW 06 length 6303 ft width 150 ft
ILS 109.10 / hdg 61

(B) RW 12 length 2696 ft width 50 ft
---- / hdg 123

(C) RW 15 length 4500 ft width 100 ft
---- / hdg 151

(D) RW 24 length 6303 ft width 150 ft
ILS 109.10 / hdg 241

(E) RW 30 length 2696 ft width 50 ft
---- / hdg 303

(F) RW 33 length 4500 ft width 100 ft
---- / hdg 331

Location; KACK
Day. 08 / Time. 17.53 Zulu
* Altimeter: 30.50
* Temperature: 02° c. 35.6°f.
* Wind from: 210° Speed 07 kn.
Dewpoint: -06° c.
Visibility: 10 Statute Miles.
Clouds: Clear (automated report).

KACK 081753Z 21007KT 10SM CLR 02/M06 A3050 RMK AO2 SLP328 T00171056 10022 21056 58020 $


Wind From 210°
Speed 07 kn.

 
 
jpsmedia worldairports.se 2019   terms of use